createdAt,value
2019-05-25T00:00:45.745Z,97773.63
2019-05-25T00:03:16.844Z,97778.04
2019-05-25T00:05:47.981Z,97773.38
2019-05-25T00:08:19.477Z,97764.95
2019-05-25T00:10:50.729Z,97772.97
2019-05-25T00:13:21.917Z,97768.11
2019-05-25T00:15:53.181Z,97778.88
2019-05-25T00:18:25.010Z,97779.64
2019-05-25T00:20:56.423Z,97780.37
2019-05-25T00:23:27.702Z,97774.70
2019-05-25T00:25:58.995Z,97772.46
2019-05-25T00:28:30.593Z,97765.83
2019-05-25T00:31:01.836Z,97767.87
2019-05-25T00:33:33.290Z,97761.23
2019-05-25T00:36:04.861Z,97758.52
2019-05-25T00:38:35.979Z,97755.81
2019-05-25T00:41:07.158Z,97758.33
2019-05-25T00:43:38.670Z,97756.12
2019-05-25T00:46:09.966Z,97755.29
2019-05-25T00:48:41.038Z,97758.29
2019-05-25T00:51:12.105Z,97753.31
2019-05-25T00:53:43.262Z,97747.17
2019-05-25T00:56:14.672Z,97753.00
2019-05-25T00:58:45.719Z,97754.58
2019-05-25T01:01:16.785Z,97754.02
2019-05-25T01:03:48.104Z,97761.64
2019-05-25T01:06:19.272Z,97757.45
2019-05-25T01:08:50.502Z,97756.77
2019-05-25T01:11:21.816Z,97754.63
2019-05-25T01:13:53.243Z,97755.11
2019-05-25T01:16:24.406Z,97754.63
2019-05-25T01:18:55.719Z,97754.86
2019-05-25T01:21:27.355Z,97753.47
2019-05-25T01:23:58.796Z,97750.50
2019-05-25T01:26:29.896Z,97752.42
2019-05-25T01:29:01.691Z,97752.91
2019-05-25T01:31:32.855Z,97753.39
2019-05-25T01:34:04.119Z,97748.86
2019-05-25T01:36:35.174Z,97750.44
2019-05-25T01:39:08.172Z,97747.58
2019-05-25T01:41:39.422Z,97748.33
2019-05-25T01:44:10.735Z,97749.55
2019-05-25T01:46:41.932Z,97739.56
2019-05-25T01:49:12.981Z,97749.00
2019-05-25T01:51:44.126Z,97744.69
2019-05-25T01:54:15.464Z,97744.47
2019-05-25T01:56:46.701Z,97749.84
2019-05-25T01:59:18.087Z,97750.23
2019-05-25T02:01:49.172Z,97750.23
2019-05-25T02:04:20.449Z,97751.58
2019-05-25T02:06:51.468Z,97745.55
2019-05-25T02:09:22.530Z,97749.61
2019-05-25T02:11:53.796Z,97753.94
2019-05-25T02:14:24.898Z,97755.38
2019-05-25T02:16:56.206Z,97753.02
2019-05-25T02:19:28.189Z,97754.80
2019-05-25T02:21:59.696Z,97756.12
2019-05-25T02:24:31.056Z,97752.80
2019-05-25T02:27:02.415Z,97753.85
2019-05-25T02:29:33.706Z,97755.16
2019-05-25T02:32:05.276Z,97756.12
2019-05-25T02:34:36.571Z,97751.84
2019-05-25T02:37:07.790Z,97758.86
2019-05-25T02:39:39.049Z,97763.61
2019-05-25T02:42:10.331Z,97760.52
2019-05-25T02:44:41.508Z,97764.80
2019-05-25T02:47:12.774Z,97764.80
2019-05-25T02:49:45.589Z,97765.15
2019-05-25T02:52:16.871Z,97772.91
2019-05-25T02:54:47.793Z,97771.12
2019-05-25T02:57:19.151Z,97772.65
2019-05-25T02:59:50.199Z,97771.21
2019-05-25T03:02:22.197Z,97769.64
2019-05-25T03:04:53.663Z,97770.86
2019-05-25T03:07:26.214Z,97779.28
2019-05-25T03:09:59.941Z,97779.28
2019-05-25T03:12:32.733Z,97786.30
2019-05-25T03:15:06.200Z,97784.52
2019-05-25T03:17:38.428Z,97790.11
2019-05-25T03:20:11.075Z,97783.91
2019-05-25T03:22:42.395Z,97786.75
2019-05-25T03:25:14.150Z,97794.00
2019-05-25T03:27:45.713Z,97799.23
2019-05-25T03:30:20.394Z,97792.11
2019-05-25T03:32:51.663Z,97792.81
2019-05-25T03:35:22.836Z,97793.38
2019-05-25T03:37:57.486Z,97797.79
2019-05-25T03:40:28.846Z,97799.58
2019-05-25T03:42:59.935Z,97800.41
2019-05-25T03:45:31.129Z,97790.98
2019-05-25T03:48:02.200Z,97797.66
2019-05-25T03:50:33.342Z,97798.13
2019-05-25T03:53:04.963Z,97800.84
2019-05-25T03:55:36.143Z,97794.77
2019-05-25T03:58:07.492Z,97794.02
2019-05-25T04:00:39.539Z,97792.94
2019-05-25T04:03:10.753Z,97793.75
2019-05-25T04:05:41.843Z,97795.27
2019-05-25T04:08:13.328Z,97795.00
2019-05-25T04:10:44.470Z,97804.86
2019-05-25T04:13:15.838Z,97804.02
2019-05-25T04:15:47.134Z,97804.31
2019-05-25T04:18:18.535Z,97810.36
2019-05-25T04:20:49.783Z,97809.90
2019-05-25T04:23:21.175Z,97809.61
2019-05-25T04:25:52.351Z,97813.73
2019-05-25T04:28:24.553Z,97808.30
2019-05-25T04:30:55.608Z,97812.34
2019-05-25T04:33:26.981Z,97818.01
2019-05-25T04:35:58.080Z,97819.56
2019-05-25T04:38:29.158Z,97815.49
2019-05-25T04:41:00.416Z,97818.89
2019-05-25T04:43:31.580Z,97818.23
2019-05-25T04:46:02.466Z,97815.10
2019-05-25T04:48:33.703Z,97816.86
2019-05-25T04:51:04.964Z,97823.22
2019-05-25T04:53:36.240Z,97824.50
2019-05-25T04:56:07.311Z,97830.75
2019-05-25T04:58:38.604Z,97829.27
2019-05-25T05:01:10.155Z,97830.84
2019-05-25T05:03:41.212Z,97836.06
2019-05-25T05:06:12.498Z,97826.41
2019-05-25T05:08:43.636Z,97833.41
2019-05-25T05:11:14.670Z,97834.16
2019-05-25T05:13:46.550Z,97830.02
2019-05-25T05:16:17.613Z,97837.28
2019-05-25T05:18:48.594Z,97831.20
2019-05-25T05:21:19.714Z,97825.36
2019-05-25T05:23:50.905Z,97833.98
2019-05-25T05:26:23.567Z,97838.25
2019-05-25T05:28:54.797Z,97841.78
2019-05-25T05:31:26.097Z,97842.72
2019-05-25T05:33:57.314Z,97840.71
2019-05-25T05:36:30.072Z,97841.21
2019-05-25T05:39:02.509Z,97846.44
2019-05-25T05:41:37.441Z,97845.91
2019-05-25T05:44:08.987Z,97845.80
2019-05-25T05:46:40.566Z,97839.99
2019-05-25T05:49:14.200Z,97842.23
2019-05-25T05:51:50.971Z,97846.77
2019-05-25T05:54:22.058Z,97845.34
2019-05-25T05:56:53.273Z,97840.06
2019-05-25T05:59:24.804Z,97839.06
2019-05-25T06:01:56.092Z,97841.13
2019-05-25T06:04:27.316Z,97840.26
2019-05-25T06:06:59.671Z,97843.63
2019-05-25T06:09:30.724Z,97843.89
2019-05-25T06:12:01.786Z,97836.55
2019-05-25T06:14:33.005Z,97848.48
2019-05-25T06:17:04.380Z,97844.74
2019-05-25T06:19:35.760Z,97849.27
2019-05-25T06:22:06.865Z,97853.61
2019-05-25T06:24:38.158Z,97846.70
2019-05-25T06:27:09.279Z,97848.21
2019-05-25T06:29:41.018Z,97846.92
2019-05-25T06:32:12.528Z,97852.76
2019-05-25T06:34:43.642Z,97858.92
2019-05-25T06:37:15.488Z,97857.77
2019-05-25T06:39:46.568Z,97845.88
2019-05-25T06:42:17.785Z,97848.52
2019-05-25T06:44:48.994Z,97851.19
2019-05-25T06:47:20.229Z,97850.84
2019-05-25T06:49:51.418Z,97835.05
2019-05-25T06:52:22.661Z,97841.45
2019-05-25T06:54:53.992Z,97838.86
2019-05-25T06:57:25.271Z,97848.78
2019-05-25T06:59:56.478Z,97844.04
2019-05-25T07:02:27.929Z,97839.97
2019-05-25T07:04:59.003Z,97844.03
2019-05-25T07:07:30.271Z,97847.58
2019-05-25T07:10:01.538Z,97850.88
2019-05-25T07:12:32.702Z,97847.02
2019-05-25T07:15:05.429Z,97856.30
2019-05-25T07:17:36.929Z,97853.77
2019-05-25T07:20:11.867Z,97856.63
2019-05-25T07:22:43.042Z,97862.19
2019-05-25T07:25:14.925Z,97866.36
2019-05-25T07:27:58.642Z,97858.27
2019-05-25T07:30:19.823Z,97863.86
2019-05-25T07:32:51.133Z,97866.73
2019-05-25T07:35:22.187Z,97861.70
2019-05-25T07:37:53.554Z,97863.48
2019-05-25T07:40:24.597Z,97860.77
2019-05-25T07:42:56.063Z,97860.14
2019-05-25T07:45:27.058Z,97858.44
2019-05-25T07:47:58.213Z,97867.87
2019-05-25T07:50:29.717Z,97867.45
2019-05-25T07:53:01.516Z,97873.09
2019-05-25T07:55:32.519Z,97868.75
2019-05-25T07:58:16.928Z,97870.07
2019-05-25T08:00:37.043Z,97866.41
2019-05-25T08:03:08.565Z,97868.19
2019-05-25T08:05:39.759Z,97876.60
2019-05-25T08:08:11.441Z,97877.73
2019-05-25T08:10:42.601Z,97871.84
2019-05-25T08:13:13.833Z,97875.53
2019-05-25T08:15:45.025Z,97884.55
2019-05-25T08:18:16.249Z,97880.70
2019-05-25T08:20:47.765Z,97879.71
2019-05-25T08:23:18.915Z,97881.14
2019-05-25T08:25:49.950Z,97873.31
2019-05-25T08:28:32.088Z,97874.02
2019-05-25T08:30:53.783Z,97879.90
2019-05-25T08:33:25.368Z,97883.98
2019-05-25T08:35:56.647Z,97875.81
2019-05-25T08:38:27.698Z,97877.72
2019-05-25T08:40:58.676Z,97869.28
2019-05-25T08:43:30.773Z,97874.41
2019-05-25T08:46:02.126Z,97865.80
2019-05-25T08:48:33.267Z,97870.18
2019-05-25T08:51:04.350Z,97866.36
2019-05-25T08:53:41.297Z,97868.64
2019-05-25T08:56:08.126Z,97872.54
2019-05-25T08:58:47.963Z,97871.12
2019-05-25T09:01:12.232Z,97872.22
2019-05-25T09:03:44.282Z,97873.32
2019-05-25T09:06:15.798Z,97870.28
2019-05-25T09:08:46.898Z,97870.78
2019-05-25T09:11:18.321Z,97876.86
2019-05-25T09:13:49.599Z,97873.81
2019-05-25T09:16:20.526Z,97875.17
2019-05-25T09:18:51.650Z,97881.34
2019-05-25T09:21:22.878Z,97877.08
2019-05-25T09:23:54.029Z,97880.27
2019-05-25T09:26:25.628Z,97872.91
2019-05-25T09:29:04.518Z,97881.27
2019-05-25T09:31:30.212Z,97877.80
2019-05-25T09:34:01.211Z,97878.02
2019-05-25T09:36:32.523Z,97881.85
2019-05-25T09:39:04.101Z,97881.15
2019-05-25T09:41:35.631Z,97881.89
2019-05-25T09:44:06.809Z,97880.23
2019-05-25T09:46:37.926Z,97887.22
2019-05-25T09:49:09.192Z,97884.31
2019-05-25T09:51:40.265Z,97885.20
2019-05-25T09:54:11.689Z,97879.86
2019-05-25T09:56:43.023Z,97885.02
2019-05-25T09:59:19.969Z,97885.48
2019-05-25T10:01:48.474Z,97887.27
2019-05-25T10:04:19.886Z,97881.18
2019-05-25T10:06:51.016Z,97888.52
2019-05-25T10:09:22.153Z,97889.00
2019-05-25T10:11:53.501Z,97882.75
2019-05-25T10:14:24.493Z,97886.17
2019-05-25T10:16:55.752Z,97890.78
2019-05-25T10:19:27.009Z,97894.34
2019-05-25T10:21:59.629Z,97894.30
2019-05-25T10:24:31.011Z,97900.55
2019-05-25T10:27:02.357Z,97895.89
2019-05-25T10:29:37.032Z,97899.81
2019-05-25T10:32:06.335Z,97894.34
2019-05-25T10:34:37.507Z,97902.80
2019-05-25T10:37:08.743Z,97891.09
2019-05-25T10:39:39.710Z,97897.23
2019-05-25T10:42:10.932Z,97895.81
2019-05-25T10:44:42.285Z,97888.98
2019-05-25T10:47:13.620Z,97890.69
2019-05-25T10:49:44.672Z,97881.04
2019-05-25T10:52:16.338Z,97875.13
2019-05-25T10:54:47.615Z,97886.95
2019-05-25T10:57:18.862Z,97886.85
2019-05-25T10:59:53.113Z,97877.57
2019-05-25T11:02:22.841Z,97873.41
2019-05-25T11:04:54.166Z,97873.17
2019-05-25T11:07:25.234Z,97865.71
2019-05-25T11:09:56.327Z,97863.52
2019-05-25T11:12:27.521Z,97868.66
2019-05-25T11:14:58.776Z,97873.70
2019-05-25T11:17:29.944Z,97859.72
2019-05-25T11:20:01.279Z,97858.61
2019-05-25T11:22:32.358Z,97862.93
2019-05-25T11:25:05.252Z,97860.73
2019-05-25T11:27:36.548Z,97862.94
2019-05-25T11:30:10.233Z,97857.10
2019-05-25T11:32:42.208Z,97860.83
2019-05-25T11:35:13.810Z,97857.13
2019-05-25T11:37:44.986Z,97853.53
2019-05-25T11:40:17.262Z,97870.52
2019-05-25T11:42:48.387Z,97854.97
2019-05-25T11:45:20.808Z,97852.27
2019-05-25T11:47:51.970Z,97840.48
2019-05-25T11:50:24.512Z,97848.25
2019-05-25T11:52:55.720Z,97845.86
2019-05-25T11:55:26.717Z,97851.30
2019-05-25T11:57:58.075Z,97840.20
2019-05-25T12:00:29.767Z,97848.93
2019-05-25T12:03:00.882Z,97845.64
2019-05-25T12:05:32.065Z,97837.78
2019-05-25T12:08:03.426Z,97836.59
2019-05-25T12:10:34.437Z,97835.75
2019-05-25T12:13:05.510Z,97841.52
2019-05-25T12:15:36.649Z,97839.86
2019-05-25T12:18:07.815Z,97832.89
2019-05-25T12:20:39.109Z,97832.62
2019-05-25T12:23:10.459Z,97842.45
2019-05-25T12:25:41.876Z,97828.00
2019-05-25T12:28:13.182Z,97833.17
2019-05-25T12:30:44.533Z,97833.76
2019-05-25T12:33:15.837Z,97826.01
2019-05-25T12:35:47.103Z,97830.38
2019-05-25T12:38:18.347Z,97833.21
2019-05-25T12:40:53.721Z,97830.52
2019-05-25T12:43:24.465Z,97826.45
2019-05-25T12:45:55.819Z,97831.58
2019-05-25T12:48:27.106Z,97838.64
2019-05-25T12:50:58.418Z,97832.62
2019-05-25T12:53:29.481Z,97827.96
2019-05-25T12:56:00.892Z,97834.67
2019-05-25T12:58:32.642Z,97822.66
2019-05-25T13:01:04.198Z,97823.86
2019-05-25T13:03:35.337Z,97814.94
2019-05-25T13:06:06.625Z,97814.80
2019-05-25T13:08:37.909Z,97808.79
2019-05-25T13:11:09.806Z,97809.30
2019-05-25T13:13:41.113Z,97804.56
2019-05-25T13:16:12.383Z,97813.96
2019-05-25T13:18:45.059Z,97814.97
2019-05-25T13:21:16.514Z,97812.05
2019-05-25T13:23:47.530Z,97815.58
2019-05-25T13:26:18.701Z,97808.22
2019-05-25T13:28:49.941Z,97816.88
2019-05-25T13:31:21.203Z,97815.47
2019-05-25T13:33:52.343Z,97808.55
2019-05-25T13:36:23.479Z,97817.00
2019-05-25T13:38:54.886Z,97816.41
2019-05-25T13:41:26.053Z,97811.08
2019-05-25T13:43:57.259Z,97819.55
2019-05-25T13:46:28.467Z,97822.02
2019-05-25T13:48:59.744Z,97820.02
2019-05-25T13:51:30.805Z,97819.89
2019-05-25T13:54:04.195Z,97830.55
2019-05-25T13:56:35.261Z,97827.66
2019-05-25T13:59:06.484Z,97832.10
2019-05-25T14:01:37.576Z,97833.62
2019-05-25T14:04:08.890Z,97831.27
2019-05-25T14:06:40.237Z,97833.59
2019-05-25T14:09:11.502Z,97830.52
2019-05-25T14:11:44.394Z,97818.74
2019-05-25T14:14:15.957Z,97825.66
2019-05-25T14:16:47.279Z,97822.36
2019-05-25T14:19:18.500Z,97831.50
2019-05-25T14:21:49.706Z,97822.95
2019-05-25T14:24:21.311Z,97828.91
2019-05-25T14:26:52.558Z,97823.20
2019-05-25T14:29:26.123Z,97827.84
2019-05-25T14:31:56.736Z,97833.67
2019-05-25T14:34:29.858Z,97827.41
2019-05-25T14:37:00.941Z,97824.38
2019-05-25T14:39:32.361Z,97817.28
2019-05-25T14:42:03.937Z,97820.75
2019-05-25T14:44:35.175Z,97815.23
2019-05-25T14:47:06.272Z,97819.59
2019-05-25T14:49:37.566Z,97818.98
2019-05-25T14:52:08.902Z,97815.53
2019-05-25T14:54:39.996Z,97811.33
2019-05-25T14:57:11.079Z,97811.37
2019-05-25T14:59:42.550Z,97805.02
2019-05-25T15:02:13.925Z,97802.19
2019-05-25T15:04:44.887Z,97797.78
2019-05-25T15:07:16.284Z,97802.33
2019-05-25T15:09:47.399Z,97803.29
2019-05-25T15:12:18.568Z,97808.38
2019-05-25T15:14:49.705Z,97807.53
2019-05-25T15:17:20.955Z,97805.37
2019-05-25T15:19:52.182Z,97810.74
2019-05-25T15:22:23.338Z,97805.59
2019-05-25T15:24:54.588Z,97810.96
2019-05-25T15:27:25.752Z,97816.25
2019-05-25T15:29:57.010Z,97811.61
2019-05-25T15:32:28.212Z,97819.19
2019-05-25T15:34:59.655Z,97818.90
2019-05-25T15:37:30.676Z,97810.48
2019-05-25T15:40:01.759Z,97803.27
2019-05-25T15:42:32.932Z,97809.61
2019-05-25T15:45:04.698Z,97805.17
2019-05-25T15:47:35.986Z,97809.80
2019-05-25T15:50:13.283Z,97809.59
2019-05-25T15:52:44.404Z,97804.88
2019-05-25T15:55:16.027Z,97811.36
2019-05-25T15:57:47.250Z,97810.95
2019-05-25T16:00:19.082Z,97814.55
2019-05-25T16:02:50.164Z,97807.02
2019-05-25T16:05:21.675Z,97805.38
2019-05-25T16:07:54.008Z,97805.25
2019-05-25T16:10:25.177Z,97804.31
2019-05-25T16:12:56.114Z,97808.09
2019-05-25T16:15:30.138Z,97815.26
2019-05-25T16:18:01.545Z,97815.85
2019-05-25T16:20:32.622Z,97818.14
2019-05-25T16:23:03.853Z,97816.70
2019-05-25T16:25:35.566Z,97814.38
2019-05-25T16:28:06.845Z,97814.37
2019-05-25T16:30:38.025Z,97813.52
2019-05-25T16:33:13.047Z,97815.98
2019-05-25T16:35:42.254Z,97811.80
2019-05-25T16:38:13.692Z,97817.93
2019-05-25T16:40:44.898Z,97813.23
2019-05-25T16:43:16.618Z,97810.25
2019-05-25T16:45:47.832Z,97807.58
2019-05-25T16:48:19.099Z,97801.74
2019-05-25T16:50:50.361Z,97802.88
2019-05-25T16:53:21.600Z,97804.41
2019-05-25T16:55:54.720Z,97804.66
2019-05-25T16:58:25.772Z,97806.14
2019-05-25T17:00:56.933Z,97811.14
2019-05-25T17:03:29.243Z,97808.46
2019-05-25T17:06:00.740Z,97810.02
2019-05-25T17:08:31.942Z,97814.56
2019-05-25T17:11:03.186Z,97811.28
2019-05-25T17:13:34.397Z,97815.78
2019-05-25T17:16:05.841Z,97816.70
2019-05-25T17:18:37.008Z,97815.47
2019-05-25T17:21:08.269Z,97808.76
2019-05-25T17:23:39.309Z,97813.37
2019-05-25T17:26:10.518Z,97815.50
2019-05-25T17:28:41.508Z,97812.01
2019-05-25T17:31:12.807Z,97817.85
2019-05-25T17:33:46.264Z,97817.45
2019-05-25T17:36:17.535Z,97817.65
2019-05-25T17:38:48.692Z,97818.59
2019-05-25T17:41:19.788Z,97816.95
2019-05-25T17:43:50.884Z,97816.81
2019-05-25T17:46:22.166Z,97816.04
2019-05-25T17:48:53.304Z,97811.79
2019-05-25T17:51:24.666Z,97825.91
2019-05-25T17:53:55.835Z,97828.00
2019-05-25T17:56:27.230Z,97827.70
2019-05-25T17:58:58.511Z,97832.38
2019-05-25T18:01:29.755Z,97828.63
2019-05-25T18:04:07.333Z,97827.45
2019-05-25T18:06:34.453Z,97827.89
2019-05-25T18:09:08.411Z,97835.18
2019-05-25T18:11:39.737Z,97836.97
2019-05-25T18:14:10.799Z,97838.09
2019-05-25T18:16:41.851Z,97841.38
2019-05-25T18:19:13.175Z,97833.69
2019-05-25T18:21:44.171Z,97834.45
2019-05-25T18:24:15.737Z,97837.91
2019-05-25T18:26:46.983Z,97829.58
2019-05-25T18:29:18.104Z,97836.47
2019-05-25T18:31:49.015Z,97841.59
2019-05-25T18:34:22.290Z,97843.00
2019-05-25T18:36:52.930Z,97845.67
2019-05-25T18:39:24.211Z,97846.44
2019-05-25T18:41:55.372Z,97849.03
2019-05-25T18:44:26.344Z,97848.16
2019-05-25T18:46:57.431Z,97849.88
2019-05-25T18:49:29.097Z,97857.72
2019-05-25T18:52:00.137Z,97855.79
2019-05-25T18:54:31.253Z,97859.18
2019-05-25T18:57:06.726Z,97862.39
2019-05-25T18:59:35.668Z,97866.09
2019-05-25T19:02:06.910Z,97873.91
2019-05-25T19:04:46.285Z,97869.14
2019-05-25T19:07:11.029Z,97877.95
2019-05-25T19:09:42.574Z,97878.49
2019-05-25T19:12:14.534Z,97875.52
2019-05-25T19:14:45.455Z,97883.50
2019-05-25T19:17:16.747Z,97878.72
2019-05-25T19:19:47.652Z,97878.77
2019-05-25T19:22:18.702Z,97879.78
2019-05-25T19:24:50.061Z,97881.77
2019-05-25T19:27:21.289Z,97894.20
2019-05-25T19:29:52.584Z,97893.53
2019-05-25T19:32:23.631Z,97888.09
2019-05-25T19:34:59.752Z,97896.55
2019-05-25T19:37:27.465Z,97890.91
2019-05-25T19:39:58.872Z,97890.23
2019-05-25T19:42:29.922Z,97892.05
2019-05-25T19:45:00.851Z,97897.84
2019-05-25T19:47:32.782Z,97893.19
2019-05-25T19:50:05.890Z,97898.16
2019-05-25T19:52:37.141Z,97903.95
2019-05-25T19:55:09.262Z,97903.95
2019-05-25T19:57:40.418Z,97900.14
2019-05-25T20:00:13.615Z,97887.58
2019-05-25T20:02:44.789Z,97897.34
2019-05-25T20:05:18.288Z,97898.97
2019-05-25T20:07:49.702Z,97900.46
2019-05-25T20:10:21.279Z,97895.17
2019-05-25T20:12:52.274Z,97893.19
2019-05-25T20:15:23.495Z,97900.30
2019-05-25T20:17:54.943Z,97896.50
2019-05-25T20:20:26.041Z,97896.17
2019-05-25T20:22:57.260Z,97896.97
2019-05-25T20:25:28.744Z,97903.77
2019-05-25T20:27:59.709Z,97902.61
2019-05-25T20:30:30.618Z,97901.43
2019-05-25T20:33:01.738Z,97902.06
2019-05-25T20:35:33.709Z,97910.48
2019-05-25T20:38:05.240Z,97910.45
2019-05-25T20:40:36.376Z,97917.56
2019-05-25T20:43:07.382Z,97922.19
2019-05-25T20:45:38.442Z,97919.64
2019-05-25T20:48:10.908Z,97924.57
2019-05-25T20:50:42.467Z,97919.61
2019-05-25T20:53:13.678Z,97920.23
2019-05-25T20:55:45.359Z,97930.14
2019-05-25T20:58:16.614Z,97931.30
2019-05-25T21:00:47.816Z,97934.41
2019-05-25T21:03:19.116Z,97935.67
2019-05-25T21:05:50.990Z,97937.33
2019-05-25T21:08:22.282Z,97935.67
2019-05-25T21:10:53.154Z,97934.17
2019-05-25T21:13:24.430Z,97930.22
2019-05-25T21:15:55.533Z,97927.53
2019-05-25T21:18:26.682Z,97929.34
2019-05-25T21:20:57.846Z,97935.29
2019-05-25T21:23:28.868Z,97929.50
2019-05-25T21:26:00.126Z,97936.89
2019-05-25T21:28:31.026Z,97927.97
2019-05-25T21:31:02.295Z,97925.48
2019-05-25T21:33:33.624Z,97925.33
2019-05-25T21:36:08.714Z,97927.47
2019-05-25T21:38:37.668Z,97931.59
2019-05-25T21:41:08.780Z,97930.44
2019-05-25T21:43:40.233Z,97933.70
2019-05-25T21:46:11.585Z,97934.19
2019-05-25T21:48:44.351Z,97937.49
2019-05-25T21:51:15.820Z,97939.62
2019-05-25T21:53:46.744Z,97936.78
2019-05-25T21:56:17.746Z,97936.27
2019-05-25T21:58:48.849Z,97931.44
2019-05-25T22:01:20.308Z,97932.59
2019-05-25T22:03:51.354Z,97938.34
2019-05-25T22:06:24.625Z,97938.63
2019-05-25T22:08:55.475Z,97940.77
2019-05-25T22:11:26.549Z,97940.71
2019-05-25T22:13:57.956Z,97937.52
2019-05-25T22:16:29.208Z,97937.45
2019-05-25T22:19:00.481Z,97937.93
2019-05-25T22:21:31.596Z,97938.55
2019-05-25T22:24:02.827Z,97934.59
2019-05-25T22:26:34.220Z,97938.38
2019-05-25T22:29:05.953Z,97939.20
2019-05-25T22:31:37.173Z,97945.13
2019-05-25T22:34:08.341Z,97936.15
2019-05-25T22:36:41.096Z,97938.45
2019-05-25T22:39:12.540Z,97936.80
2019-05-25T22:41:43.543Z,97934.47
2019-05-25T22:44:14.753Z,97931.86
2019-05-25T22:46:45.813Z,97934.83
2019-05-25T22:49:17.123Z,97931.75
2019-05-25T22:51:48.139Z,97936.05
2019-05-25T22:54:20.117Z,97938.70
2019-05-25T22:56:51.219Z,97948.94
2019-05-25T22:59:22.228Z,97952.22
2019-05-25T23:01:53.793Z,97959.41
2019-05-25T23:04:24.915Z,97949.17
2019-05-25T23:06:58.308Z,97958.72
2019-05-25T23:09:28.811Z,97951.39
2019-05-25T23:11:59.852Z,97946.86
2019-05-25T23:14:31.021Z,97936.20
2019-05-25T23:17:02.343Z,97934.41
2019-05-25T23:19:33.503Z,97941.50
2019-05-25T23:22:04.685Z,97935.91
2019-05-25T23:24:35.752Z,97935.14
2019-05-25T23:27:07.010Z,97945.52
2019-05-25T23:29:37.971Z,97946.77
2019-05-25T23:32:09.169Z,97942.39
2019-05-25T23:34:40.483Z,97926.50
2019-05-25T23:37:15.004Z,97919.63
2019-05-25T23:39:44.638Z,97923.94
2019-05-25T23:42:15.785Z,97922.80
2019-05-25T23:44:46.772Z,97923.78
2019-05-25T23:47:17.876Z,97932.34
2019-05-25T23:49:49.087Z,97925.08
2019-05-25T23:52:20.165Z,97926.34
2019-05-25T23:54:51.319Z,97927.46
2019-05-25T23:57:22.420Z,97933.51
2019-05-25T23:59:53.747Z,97924.89
